sensor_id;sensor_type;location;lat;lon;timestamp;temperature;humidity
6008;DHT22;3032;49.484;11.112;2024-01-16T00:01:44;0.80;99.90
6008;DHT22;3032;49.484;11.112;2024-01-16T00:04:10;0.80;99.90
6008;DHT22;3032;49.484;11.112;2024-01-16T00:06:40;0.90;99.90
6008;DHT22;3032;49.484;11.112;2024-01-16T00:09:06;1.00;99.90
6008;DHT22;3032;49.484;11.112;2024-01-16T00:11:31;0.70;99.90
6008;DHT22;3032;49.484;11.112;2024-01-16T00:13:57;0.70;99.90
6008;DHT22;3032;49.484;11.112;2024-01-16T00:16:22;0.80;99.90
6008;DHT22;3032;49.484;11.112;2024-01-16T00:18:48;0.60;99.90
6008;DHT22;3032;49.484;11.112;2024-01-16T00:21:13;0.40;99.90
6008;DHT22;3032;49.484;11.112;2024-01-16T00:23:39;0.40;99.90
6008;DHT22;3032;49.484;11.112;2024-01-16T00:26:04;0.50;99.90
6008;DHT22;3032;49.484;11.112;2024-01-16T00:28:31;0.60;99.90
6008;DHT22;3032;49.484;11.112;2024-01-16T00:30:57;0.60;99.90
6008;DHT22;3032;49.484;11.112;2024-01-16T00:33:23;0.60;99.90
6008;DHT22;3032;49.484;11.112;2024-01-16T00:35:49;0.70;99.90
6008;DHT22;3032;49.484;11.112;2024-01-16T00:38:14;1.00;99.90
6008;DHT22;3032;49.484;11.112;2024-01-16T00:40:40;1.10;99.90
6008;DHT22;3032;49.484;11.112;2024-01-16T00:43:06;1.10;99.90
6008;DHT22;3032;49.484;11.112;2024-01-16T00:45:31;0.70;99.90
6008;DHT22;3032;49.484;11.112;2024-01-16T00:47:57;0.80;99.90
6008;DHT22;3032;49.484;11.112;2024-01-16T00:50:22;0.90;99.90
6008;DHT22;3032;49.484;11.112;2024-01-16T00:52:49;0.90;99.90
6008;DHT22;3032;49.484;11.112;2024-01-16T00:55:15;0.80;99.90
6008;DHT22;3032;49.484;11.112;2024-01-16T00:57:40;0.80;99.90
6008;DHT22;3032;49.484;11.112;2024-01-16T01:00:06;0.80;99.90
6008;DHT22;3032;49.484;11.112;2024-01-16T01:02:32;0.60;99.90
6008;DHT22;3032;49.484;11.112;2024-01-16T01:04:58;0.80;99.90
6008;DHT22;3032;49.484;11.112;2024-01-16T01:07:23;0.90;99.90
6008;DHT22;3032;49.484;11.112;2024-01-16T01:09:50;1.00;99.90
6008;DHT22;3032;49.484;11.112;2024-01-16T01:12:16;0.90;99.90
6008;DHT22;3032;49.484;11.112;2024-01-16T01:14:41;0.60;99.90
6008;DHT22;3032;49.484;11.112;2024-01-16T01:17:07;0.60;99.90
6008;DHT22;3032;49.484;11.112;2024-01-16T01:19:33;0.60;99.90
6008;DHT22;3032;49.484;11.112;2024-01-16T01:21:58;0.80;99.90
6008;DHT22;3032;49.484;11.112;2024-01-16T01:24:24;0.60;99.90
6008;DHT22;3032;49.484;11.112;2024-01-16T01:26:49;0.60;99.90
6008;DHT22;3032;49.484;11.112;2024-01-16T01:29:15;0.60;99.90
6008;DHT22;3032;49.484;11.112;2024-01-16T01:31:45;0.70;99.90
6008;DHT22;3032;49.484;11.112;2024-01-16T01:34:12;0.70;99.90
6008;DHT22;3032;49.484;11.112;2024-01-16T01:36:37;0.70;99.90
6008;DHT22;3032;49.484;11.112;2024-01-16T01:39:03;0.70;99.90
6008;DHT22;3032;49.484;11.112;2024-01-16T01:41:28;0.60;99.90
6008;DHT22;3032;49.484;11.112;2024-01-16T01:43:54;0.60;99.90
6008;DHT22;3032;49.484;11.112;2024-01-16T01:46:19;0.70;99.90
6008;DHT22;3032;49.484;11.112;2024-01-16T01:48:47;0.50;99.90
6008;DHT22;3032;49.484;11.112;2024-01-16T01:51:14;0.40;99.90
6008;DHT22;3032;49.484;11.112;2024-01-16T01:53:42;0.50;99.90
6008;DHT22;3032;49.484;11.112;2024-01-16T01:56:11;0.50;99.90
6008;DHT22;3032;49.484;11.112;2024-01-16T01:58:39;0.70;99.90
6008;DHT22;3032;49.484;11.112;2024-01-16T02:01:06;0.80;99.90
6008;DHT22;3032;49.484;11.112;2024-01-16T02:03:46;0.70;99.90
6008;DHT22;3032;49.484;11.112;2024-01-16T02:06:12;0.60;99.90
6008;DHT22;3032;49.484;11.112;2024-01-16T02:08:39;0.70;99.90
6008;DHT22;3032;49.484;11.112;2024-01-16T02:11:05;0.80;99.90
6008;DHT22;3032;49.484;11.112;2024-01-16T02:13:31;0.90;99.90
6008;DHT22;3032;49.484;11.112;2024-01-16T02:15:56;1.00;99.90
6008;DHT22;3032;49.484;11.112;2024-01-16T02:18:22;1.00;99.90
6008;DHT22;3032;49.484;11.112;2024-01-16T02:20:48;1.00;99.90
6008;DHT22;3032;49.484;11.112;2024-01-16T02:23:14;0.90;99.90
6008;DHT22;3032;49.484;11.112;2024-01-16T02:25:41;0.90;99.90
6008;DHT22;3032;49.484;11.112;2024-01-16T02:28:07;0.90;99.90
6008;DHT22;3032;49.484;11.112;2024-01-16T02:30:33;0.70;99.90
6008;DHT22;3032;49.484;11.112;2024-01-16T02:32:59;0.60;99.90
6008;DHT22;3032;49.484;11.112;2024-01-16T02:35:24;0.60;99.90
6008;DHT22;3032;49.484;11.112;2024-01-16T02:37:50;0.60;99.90
6008;DHT22;3032;49.484;11.112;2024-01-16T02:40:16;0.70;99.90
6008;DHT22;3032;49.484;11.112;2024-01-16T02:42:41;1.00;99.90
6008;DHT22;3032;49.484;11.112;2024-01-16T02:45:07;0.90;99.90
6008;DHT22;3032;49.484;11.112;2024-01-16T02:47:33;1.10;99.90
6008;DHT22;3032;49.484;11.112;2024-01-16T02:49:59;1.00;99.90
6008;DHT22;3032;49.484;11.112;2024-01-16T02:52:25;0.90;99.90
6008;DHT22;3032;49.484;11.112;2024-01-16T02:54:51;0.90;99.90
6008;DHT22;3032;49.484;11.112;2024-01-16T02:57:16;0.90;99.90
6008;DHT22;3032;49.484;11.112;2024-01-16T02:59:45;1.00;99.90
6008;DHT22;3032;49.484;11.112;2024-01-16T03:02:11;0.70;99.90
6008;DHT22;3032;49.484;11.112;2024-01-16T03:04:37;0.70;99.90
6008;DHT22;3032;49.484;11.112;2024-01-16T03:07:03;0.80;99.90
6008;DHT22;3032;49.484;11.112;2024-01-16T03:09:28;0.80;99.90
6008;DHT22;3032;49.484;11.112;2024-01-16T03:11:54;0.60;99.90
6008;DHT22;3032;49.484;11.112;2024-01-16T03:14:20;0.60;99.90
6008;DHT22;3032;49.484;11.112;2024-01-16T03:16:46;0.70;99.90
6008;DHT22;3032;49.484;11.112;2024-01-16T03:19:12;0.70;99.90
6008;DHT22;3032;49.484;11.112;2024-01-16T03:21:38;0.70;99.90
6008;DHT22;3032;49.484;11.112;2024-01-16T03:24:04;0.90;99.90
6008;DHT22;3032;49.484;11.112;2024-01-16T03:26:31;1.10;99.90
6008;DHT22;3032;49.484;11.112;2024-01-16T03:28:58;1.10;99.90
6008;DHT22;3032;49.484;11.112;2024-01-16T03:31:23;0.90;99.90
6008;DHT22;3032;49.484;11.112;2024-01-16T03:33:49;0.70;99.90
6008;DHT22;3032;49.484;11.112;2024-01-16T03:36:15;0.70;99.90
6008;DHT22;3032;49.484;11.112;2024-01-16T03:38:42;1.00;99.90
6008;DHT22;3032;49.484;11.112;2024-01-16T03:41:08;1.00;99.90
6008;DHT22;3032;49.484;11.112;2024-01-16T03:43:34;1.10;99.90
6008;DHT22;3032;49.484;11.112;2024-01-16T03:46:00;1.30;99.90
6008;DHT22;3032;49.484;11.112;2024-01-16T03:48:26;1.40;99.90
6008;DHT22;3032;49.484;11.112;2024-01-16T03:50:51;1.40;99.90
6008;DHT22;3032;49.484;11.112;2024-01-16T03:53:17;1.40;99.90
6008;DHT22;3032;49.484;11.112;2024-01-16T03:55:42;1.40;99.90
6008;DHT22;3032;49.484;11.112;2024-01-16T03:58:08;1.20;99.90
6008;DHT22;3032;49.484;11.112;2024-01-16T04:00:34;1.00;99.90
6008;DHT22;3032;49.484;11.112;2024-01-16T04:02:59;1.00;99.90
6008;DHT22;3032;49.484;11.112;2024-01-16T04:05:25;1.20;99.90
6008;DHT22;3032;49.484;11.112;2024-01-16T04:07:50;1.10;99.90
6008;DHT22;3032;49.484;11.112;2024-01-16T04:10:17;1.10;99.90
6008;DHT22;3032;49.484;11.112;2024-01-16T04:12:43;1.00;99.90
6008;DHT22;3032;49.484;11.112;2024-01-16T04:15:09;0.80;99.90
6008;DHT22;3032;49.484;11.112;2024-01-16T04:17:34;0.80;99.90
6008;DHT22;3032;49.484;11.112;2024-01-16T04:20:00;0.70;99.90
6008;DHT22;3032;49.484;11.112;2024-01-16T04:22:25;0.60;99.90
6008;DHT22;3032;49.484;11.112;2024-01-16T04:24:51;0.60;99.90
6008;DHT22;3032;49.484;11.112;2024-01-16T04:27:16;0.80;99.90
6008;DHT22;3032;49.484;11.112;2024-01-16T04:29:42;0.80;99.90
6008;DHT22;3032;49.484;11.112;2024-01-16T04:32:08;0.80;99.90
6008;DHT22;3032;49.484;11.112;2024-01-16T04:34:34;0.90;99.90
6008;DHT22;3032;49.484;11.112;2024-01-16T04:37:00;1.10;99.90
6008;DHT22;3032;49.484;11.112;2024-01-16T04:39:25;1.00;99.90
6008;DHT22;3032;49.484;11.112;2024-01-16T04:41:51;0.90;99.90
6008;DHT22;3032;49.484;11.112;2024-01-16T04:44:16;0.90;99.90
6008;DHT22;3032;49.484;11.112;2024-01-16T04:46:42;0.90;99.90
6008;DHT22;3032;49.484;11.112;2024-01-16T04:49:08;1.00;99.90
6008;DHT22;3032;49.484;11.112;2024-01-16T04:51:34;1.10;99.90
6008;DHT22;3032;49.484;11.112;2024-01-16T04:53:59;1.00;99.90
6008;DHT22;3032;49.484;11.112;2024-01-16T04:56:25;1.00;99.90
6008;DHT22;3032;49.484;11.112;2024-01-16T04:58:50;1.00;99.90
6008;DHT22;3032;49.484;11.112;2024-01-16T05:01:17;1.00;99.90
6008;DHT22;3032;49.484;11.112;2024-01-16T05:03:43;0.90;99.90
6008;DHT22;3032;49.484;11.112;2024-01-16T05:06:15;0.90;99.90
6008;DHT22;3032;49.484;11.112;2024-01-16T05:08:41;1.10;99.90
6008;DHT22;3032;49.484;11.112;2024-01-16T05:11:07;1.00;99.90
6008;DHT22;3032;49.484;11.112;2024-01-16T05:13:33;1.00;99.90
6008;DHT22;3032;49.484;11.112;2024-01-16T05:15:59;0.90;99.90
6008;DHT22;3032;49.484;11.112;2024-01-16T05:18:24;0.90;99.90
6008;DHT22;3032;49.484;11.112;2024-01-16T05:20:50;1.10;99.90
6008;DHT22;3032;49.484;11.112;2024-01-16T05:23:15;1.10;99.90
6008;DHT22;3032;49.484;11.112;2024-01-16T05:25:41;0.90;99.90
6008;DHT22;3032;49.484;11.112;2024-01-16T05:28:07;1.00;99.90
6008;DHT22;3032;49.484;11.112;2024-01-16T05:30:32;1.00;99.90
6008;DHT22;3032;49.484;11.112;2024-01-16T05:32:59;0.80;99.90
6008;DHT22;3032;49.484;11.112;2024-01-16T05:35:27;0.70;99.90
6008;DHT22;3032;49.484;11.112;2024-01-16T05:37:53;1.00;99.90
6008;DHT22;3032;49.484;11.112;2024-01-16T05:40:19;1.10;99.90
6008;DHT22;3032;49.484;11.112;2024-01-16T05:42:44;0.90;99.90
6008;DHT22;3032;49.484;11.112;2024-01-16T05:45:10;0.80;99.90
6008;DHT22;3032;49.484;11.112;2024-01-16T05:47:36;0.80;99.90
6008;DHT22;3032;49.484;11.112;2024-01-16T05:50:02;0.80;99.90
6008;DHT22;3032;49.484;11.112;2024-01-16T05:52:27;0.80;99.90
6008;DHT22;3032;49.484;11.112;2024-01-16T05:54:53;0.80;99.90
6008;DHT22;3032;49.484;11.112;2024-01-16T05:57:22;0.70;99.90
6008;DHT22;3032;49.484;11.112;2024-01-16T05:59:48;0.80;99.90
6008;DHT22;3032;49.484;11.112;2024-01-16T06:02:13;1.00;99.90
6008;DHT22;3032;49.484;11.112;2024-01-16T06:04:39;1.00;99.90
6008;DHT22;3032;49.484;11.112;2024-01-16T06:07:05;1.00;99.90
6008;DHT22;3032;49.484;11.112;2024-01-16T06:09:38;0.90;99.90
6008;DHT22;3032;49.484;11.112;2024-01-16T06:12:05;0.80;99.90
6008;DHT22;3032;49.484;11.112;2024-01-16T06:14:32;1.00;99.90
6008;DHT22;3032;49.484;11.112;2024-01-16T06:16:58;1.00;99.90
6008;DHT22;3032;49.484;11.112;2024-01-16T06:19:23;1.20;99.90
6008;DHT22;3032;49.484;11.112;2024-01-16T06:21:49;1.00;99.90
6008;DHT22;3032;49.484;11.112;2024-01-16T06:24:16;0.70;99.90
6008;DHT22;3032;49.484;11.112;2024-01-16T06:26:42;0.80;99.90
6008;DHT22;3032;49.484;11.112;2024-01-16T06:29:08;0.70;99.90
6008;DHT22;3032;49.484;11.112;2024-01-16T06:31:33;0.70;99.90
6008;DHT22;3032;49.484;11.112;2024-01-16T06:33:59;0.90;99.90
6008;DHT22;3032;49.484;11.112;2024-01-16T06:36:24;0.90;99.90
6008;DHT22;3032;49.484;11.112;2024-01-16T06:38:50;0.80;99.90
6008;DHT22;3032;49.484;11.112;2024-01-16T06:41:15;0.70;99.90
6008;DHT22;3032;49.484;11.112;2024-01-16T06:43:41;0.90;99.90
6008;DHT22;3032;49.484;11.112;2024-01-16T06:46:06;1.00;99.90
6008;DHT22;3032;49.484;11.112;2024-01-16T06:48:33;1.10;99.90
6008;DHT22;3032;49.484;11.112;2024-01-16T06:50:59;0.80;99.90
6008;DHT22;3032;49.484;11.112;2024-01-16T06:53:26;0.80;99.90
6008;DHT22;3032;49.484;11.112;2024-01-16T06:55:52;0.90;99.90
6008;DHT22;3032;49.484;11.112;2024-01-16T06:58:17;1.20;99.90
6008;DHT22;3032;49.484;11.112;2024-01-16T07:00:43;1.40;99.90
6008;DHT22;3032;49.484;11.112;2024-01-16T07:03:08;1.60;99.90
6008;DHT22;3032;49.484;11.112;2024-01-16T07:05:34;1.80;99.90
6008;DHT22;3032;49.484;11.112;2024-01-16T07:07:59;1.60;99.90
6008;DHT22;3032;49.484;11.112;2024-01-16T07:10:25;1.40;99.90
6008;DHT22;3032;49.484;11.112;2024-01-16T07:12:51;1.40;99.90
6008;DHT22;3032;49.484;11.112;2024-01-16T07:15:17;1.40;99.90
6008;DHT22;3032;49.484;11.112;2024-01-16T07:17:43;1.50;99.90
6008;DHT22;3032;49.484;11.112;2024-01-16T07:20:09;1.50;99.90
6008;DHT22;3032;49.484;11.112;2024-01-16T07:22:37;1.60;99.90
6008;DHT22;3032;49.484;11.112;2024-01-16T07:25:03;1.60;99.90
6008;DHT22;3032;49.484;11.112;2024-01-16T07:27:28;1.60;99.90
6008;DHT22;3032;49.484;11.112;2024-01-16T07:29:54;1.70;99.90
6008;DHT22;3032;49.484;11.112;2024-01-16T07:32:19;1.70;99.90
6008;DHT22;3032;49.484;11.112;2024-01-16T07:34:45;1.80;99.90
6008;DHT22;3032;49.484;11.112;2024-01-16T07:37:10;2.00;99.90
6008;DHT22;3032;49.484;11.112;2024-01-16T07:39:36;2.00;99.90
6008;DHT22;3032;49.484;11.112;2024-01-16T07:42:01;1.80;99.90
6008;DHT22;3032;49.484;11.112;2024-01-16T07:44:27;1.70;99.90
6008;DHT22;3032;49.484;11.112;2024-01-16T07:46:52;1.50;99.90
6008;DHT22;3032;49.484;11.112;2024-01-16T07:49:18;1.50;99.90
6008;DHT22;3032;49.484;11.112;2024-01-16T07:51:44;1.70;99.90
6008;DHT22;3032;49.484;11.112;2024-01-16T07:54:10;1.80;99.90
6008;DHT22;3032;49.484;11.112;2024-01-16T07:56:38;2.10;99.90
6008;DHT22;3032;49.484;11.112;2024-01-16T07:59:04;2.30;99.90
6008;DHT22;3032;49.484;11.112;2024-01-16T08:01:29;2.40;99.90
6008;DHT22;3032;49.484;11.112;2024-01-16T08:03:56;2.20;99.90
6008;DHT22;3032;49.484;11.112;2024-01-16T08:06:22;2.20;99.90
6008;DHT22;3032;49.484;11.112;2024-01-16T08:08:48;2.40;99.90
6008;DHT22;3032;49.484;11.112;2024-01-16T08:11:14;2.30;99.90
6008;DHT22;3032;49.484;11.112;2024-01-16T08:13:40;2.40;99.90
6008;DHT22;3032;49.484;11.112;2024-01-16T08:16:05;2.60;99.90
6008;DHT22;3032;49.484;11.112;2024-01-16T08:18:31;3.00;99.90
6008;DHT22;3032;49.484;11.112;2024-01-16T08:20:57;3.10;99.90
6008;DHT22;3032;49.484;11.112;2024-01-16T08:23:23;3.30;99.90
6008;DHT22;3032;49.484;11.112;2024-01-16T08:25:48;3.60;99.90
6008;DHT22;3032;49.484;11.112;2024-01-16T08:28:14;3.60;99.90
6008;DHT22;3032;49.484;11.112;2024-01-16T08:30:40;3.60;99.90
6008;DHT22;3032;49.484;11.112;2024-01-16T08:33:06;3.70;99.90
6008;DHT22;3032;49.484;11.112;2024-01-16T08:35:31;3.70;99.90
6008;DHT22;3032;49.484;11.112;2024-01-16T08:37:57;3.70;99.90
6008;DHT22;3032;49.484;11.112;2024-01-16T08:40:22;3.50;99.90
6008;DHT22;3032;49.484;11.112;2024-01-16T08:42:48;3.50;99.90
6008;DHT22;3032;49.484;11.112;2024-01-16T08:45:20;3.60;99.90
6008;DHT22;3032;49.484;11.112;2024-01-16T08:47:46;3.60;99.90
6008;DHT22;3032;49.484;11.112;2024-01-16T08:50:11;3.70;99.90
6008;DHT22;3032;49.484;11.112;2024-01-16T08:52:37;3.70;99.90
6008;DHT22;3032;49.484;11.112;2024-01-16T08:55:03;3.60;99.90
6008;DHT22;3032;49.484;11.112;2024-01-16T08:57:29;3.60;99.90
6008;DHT22;3032;49.484;11.112;2024-01-16T08:59:55;3.70;99.90
6008;DHT22;3032;49.484;11.112;2024-01-16T09:02:21;3.90;99.90
6008;DHT22;3032;49.484;11.112;2024-01-16T09:04:47;4.00;99.90
6008;DHT22;3032;49.484;11.112;2024-01-16T09:07:13;3.80;99.90
6008;DHT22;3032;49.484;11.112;2024-01-16T09:09:41;3.70;99.90
6008;DHT22;3032;49.484;11.112;2024-01-16T09:12:10;3.60;99.90
6008;DHT22;3032;49.484;11.112;2024-01-16T09:14:36;3.80;99.90
6008;DHT22;3032;49.484;11.112;2024-01-16T09:17:02;3.50;99.90
6008;DHT22;3032;49.484;11.112;2024-01-16T09:19:28;3.40;99.90
6008;DHT22;3032;49.484;11.112;2024-01-16T09:21:55;3.30;99.90
6008;DHT22;3032;49.484;11.112;2024-01-16T09:24:20;3.40;99.90
6008;DHT22;3032;49.484;11.112;2024-01-16T09:26:46;3.50;99.90
6008;DHT22;3032;49.484;11.112;2024-01-16T09:29:12;3.70;99.90
6008;DHT22;3032;49.484;11.112;2024-01-16T09:31:37;3.90;99.90
6008;DHT22;3032;49.484;11.112;2024-01-16T09:34:04;4.10;99.90
6008;DHT22;3032;49.484;11.112;2024-01-16T09:36:29;3.90;99.90
6008;DHT22;3032;49.484;11.112;2024-01-16T09:38:55;3.90;99.90
6008;DHT22;3032;49.484;11.112;2024-01-16T09:41:21;3.70;99.90
6008;DHT22;3032;49.484;11.112;2024-01-16T09:43:47;3.50;99.90
6008;DHT22;3032;49.484;11.112;2024-01-16T09:46:15;3.30;99.90
6008;DHT22;3032;49.484;11.112;2024-01-16T09:48:42;3.30;99.90
6008;DHT22;3032;49.484;11.112;2024-01-16T09:51:10;3.40;99.90
6008;DHT22;3032;49.484;11.112;2024-01-16T09:53:40;3.40;99.90
6008;DHT22;3032;49.484;11.112;2024-01-16T09:56:14;3.40;99.90
6008;DHT22;3032;49.484;11.112;2024-01-16T09:58:41;3.40;99.90
6008;DHT22;3032;49.484;11.112;2024-01-16T10:01:08;3.30;99.90
6008;DHT22;3032;49.484;11.112;2024-01-16T10:03:38;3.50;99.90
6008;DHT22;3032;49.484;11.112;2024-01-16T10:06:05;3.60;99.90
6008;DHT22;3032;49.484;11.112;2024-01-16T10:08:32;4.10;99.90
6008;DHT22;3032;49.484;11.112;2024-01-16T10:10:58;3.90;99.90
6008;DHT22;3032;49.484;11.112;2024-01-16T10:13:24;3.80;99.90
6008;DHT22;3032;49.484;11.112;2024-01-16T10:15:50;3.60;99.90
6008;DHT22;3032;49.484;11.112;2024-01-16T10:18:28;3.70;99.90
6008;DHT22;3032;49.484;11.112;2024-01-16T10:20:56;3.60;99.90
6008;DHT22;3032;49.484;11.112;2024-01-16T10:23:31;3.50;99.90
6008;DHT22;3032;49.484;11.112;2024-01-16T10:28:32;3.00;99.90
6008;DHT22;3032;49.484;11.112;2024-01-16T10:31:06;3.10;99.90
6008;DHT22;3032;49.484;11.112;2024-01-16T10:33:32;3.40;99.90
6008;DHT22;3032;49.484;11.112;2024-01-16T10:36:17;3.30;99.90
6008;DHT22;3032;49.484;11.112;2024-01-16T10:38:46;3.10;99.90
6008;DHT22;3032;49.484;11.112;2024-01-16T10:41:13;3.50;99.90
6008;DHT22;3032;49.484;11.112;2024-01-16T10:43:39;3.80;99.90
6008;DHT22;3032;49.484;11.112;2024-01-16T10:46:12;3.80;99.90
6008;DHT22;3032;49.484;11.112;2024-01-16T10:48:40;3.90;99.90
6008;DHT22;3032;49.484;11.112;2024-01-16T10:51:07;3.90;99.90
6008;DHT22;3032;49.484;11.112;2024-01-16T10:53:34;4.10;99.90
6008;DHT22;3032;49.484;11.112;2024-01-16T10:56:01;4.30;99.90
6008;DHT22;3032;49.484;11.112;2024-01-16T10:58:29;4.40;99.90
6008;DHT22;3032;49.484;11.112;2024-01-16T11:01:02;4.20;99.90
6008;DHT22;3032;49.484;11.112;2024-01-16T11:03:35;4.30;99.90
6008;DHT22;3032;49.484;11.112;2024-01-16T11:06:06;4.60;99.90
6008;DHT22;3032;49.484;11.112;2024-01-16T11:08:32;4.40;99.50
6008;DHT22;3032;49.484;11.112;2024-01-16T11:11:02;4.30;99.80
6008;DHT22;3032;49.484;11.112;2024-01-16T11:13:33;4.30;99.80
6008;DHT22;3032;49.484;11.112;2024-01-16T11:16:05;4.30;99.80
6008;DHT22;3032;49.484;11.112;2024-01-16T11:18:31;4.30;99.60
6008;DHT22;3032;49.484;11.112;2024-01-16T11:21:08;4.10;99.50
6008;DHT22;3032;49.484;11.112;2024-01-16T11:23:36;4.20;99.70
6008;DHT22;3032;49.484;11.112;2024-01-16T11:26:24;4.20;99.00
6008;DHT22;3032;49.484;11.112;2024-01-16T11:28:50;4.40;99.60
6008;DHT22;3032;49.484;11.112;2024-01-16T11:33:57;4.00;99.50
6008;DHT22;3032;49.484;11.112;2024-01-16T11:36:49;4.30;99.90
6008;DHT22;3032;49.484;11.112;2024-01-16T11:39:25;4.60;98.90
6008;DHT22;3032;49.484;11.112;2024-01-16T11:41:58;4.40;98.20
6008;DHT22;3032;49.484;11.112;2024-01-16T11:47:08;4.20;98.50
6008;DHT22;3032;49.484;11.112;2024-01-16T11:49:37;4.20;98.80
6008;DHT22;3032;49.484;11.112;2024-01-16T11:52:03;4.60;98.90
6008;DHT22;3032;49.484;11.112;2024-01-16T11:54:29;4.90;98.30
6008;DHT22;3032;49.484;11.112;2024-01-16T12:02:31;4.30;98.20
6008;DHT22;3032;49.484;11.112;2024-01-16T12:04:59;4.30;98.50
6008;DHT22;3032;49.484;11.112;2024-01-16T12:07:29;4.20;97.90
6008;DHT22;3032;49.484;11.112;2024-01-16T12:09:59;4.30;98.30
6008;DHT22;3032;49.484;11.112;2024-01-16T12:12:25;4.60;97.40
6008;DHT22;3032;49.484;11.112;2024-01-16T12:14:52;4.70;97.10
6008;DHT22;3032;49.484;11.112;2024-01-16T12:17:18;4.70;96.70
6008;DHT22;3032;49.484;11.112;2024-01-16T12:19:45;4.80;97.30
6008;DHT22;3032;49.484;11.112;2024-01-16T12:22:14;4.80;96.90
6008;DHT22;3032;49.484;11.112;2024-01-16T12:24:42;4.70;96.60
6008;DHT22;3032;49.484;11.112;2024-01-16T12:27:08;5.00;96.00
6008;DHT22;3032;49.484;11.112;2024-01-16T12:29:34;5.40;95.70
6008;DHT22;3032;49.484;11.112;2024-01-16T12:32:12;5.70;95.50
6008;DHT22;3032;49.484;11.112;2024-01-16T12:34:44;5.90;94.70
6008;DHT22;3032;49.484;11.112;2024-01-16T12:37:13;5.60;94.40
6008;DHT22;3032;49.484;11.112;2024-01-16T12:39:40;5.40;94.50
6008;DHT22;3032;49.484;11.112;2024-01-16T12:42:08;5.40;94.40
6008;DHT22;3032;49.484;11.112;2024-01-16T12:44:35;5.30;94.10
6008;DHT22;3032;49.484;11.112;2024-01-16T12:47:01;4.50;94.50
6008;DHT22;3032;49.484;11.112;2024-01-16T12:49:27;4.50;95.20
6008;DHT22;3032;49.484;11.112;2024-01-16T12:52:18;4.70;94.80
6008;DHT22;3032;49.484;11.112;2024-01-16T12:54:47;5.30;94.50
6008;DHT22;3032;49.484;11.112;2024-01-16T12:57:22;5.60;94.20
6008;DHT22;3032;49.484;11.112;2024-01-16T12:59:48;5.60;93.80
6008;DHT22;3032;49.484;11.112;2024-01-16T13:02:25;5.70;93.80
6008;DHT22;3032;49.484;11.112;2024-01-16T13:05:00;5.60;93.70
6008;DHT22;3032;49.484;11.112;2024-01-16T13:07:28;5.60;94.00
6008;DHT22;3032;49.484;11.112;2024-01-16T13:10:09;5.90;93.40
6008;DHT22;3032;49.484;11.112;2024-01-16T13:12:37;5.90;93.40
6008;DHT22;3032;49.484;11.112;2024-01-16T13:15:03;6.00;93.10
6008;DHT22;3032;49.484;11.112;2024-01-16T13:17:32;5.40;93.10
6008;DHT22;3032;49.484;11.112;2024-01-16T13:19:57;5.20;92.80
6008;DHT22;3032;49.484;11.112;2024-01-16T13:22:23;4.80;94.20
6008;DHT22;3032;49.484;11.112;2024-01-16T13:24:48;5.10;94.50
6008;DHT22;3032;49.484;11.112;2024-01-16T13:27:14;5.40;93.90
6008;DHT22;3032;49.484;11.112;2024-01-16T13:29:39;5.50;93.00
6008;DHT22;3032;49.484;11.112;2024-01-16T13:32:06;5.40;93.10
6008;DHT22;3032;49.484;11.112;2024-01-16T13:34:31;5.50;93.10
6008;DHT22;3032;49.484;11.112;2024-01-16T13:36:58;5.50;92.50
6008;DHT22;3032;49.484;11.112;2024-01-16T13:39:26;5.90;92.20
6008;DHT22;3032;49.484;11.112;2024-01-16T13:41:53;6.20;92.40
6008;DHT22;3032;49.484;11.112;2024-01-16T13:44:18;6.30;91.60
6008;DHT22;3032;49.484;11.112;2024-01-16T13:46:44;6.40;91.30
6008;DHT22;3032;49.484;11.112;2024-01-16T13:49:10;6.40;91.00
6008;DHT22;3032;49.484;11.112;2024-01-16T13:51:35;6.70;91.30
6008;DHT22;3032;49.484;11.112;2024-01-16T13:54:01;7.00;90.80
6008;DHT22;3032;49.484;11.112;2024-01-16T13:56:27;7.20;89.90
6008;DHT22;3032;49.484;11.112;2024-01-16T13:58:53;7.10;90.10
6008;DHT22;3032;49.484;11.112;2024-01-16T14:01:18;6.90;89.40
6008;DHT22;3032;49.484;11.112;2024-01-16T14:03:45;7.20;90.10
6008;DHT22;3032;49.484;11.112;2024-01-16T14:06:12;7.20;88.20
6008;DHT22;3032;49.484;11.112;2024-01-16T14:08:39;6.10;87.80
6008;DHT22;3032;49.484;11.112;2024-01-16T14:11:04;6.00;90.30
6008;DHT22;3032;49.484;11.112;2024-01-16T14:13:31;6.10;90.30
6008;DHT22;3032;49.484;11.112;2024-01-16T14:15:56;5.80;90.30
6008;DHT22;3032;49.484;11.112;2024-01-16T14:18:22;5.80;90.50
6008;DHT22;3032;49.484;11.112;2024-01-16T14:20:48;5.90;90.30
6008;DHT22;3032;49.484;11.112;2024-01-16T14:23:15;5.90;90.00
6008;DHT22;3032;49.484;11.112;2024-01-16T14:25:40;5.90;90.40
6008;DHT22;3032;49.484;11.112;2024-01-16T14:28:06;5.80;90.20
6008;DHT22;3032;49.484;11.112;2024-01-16T14:30:33;5.70;90.30
6008;DHT22;3032;49.484;11.112;2024-01-16T14:32:59;5.70;90.00
6008;DHT22;3032;49.484;11.112;2024-01-16T14:35:25;5.60;90.10
6008;DHT22;3032;49.484;11.112;2024-01-16T14:37:51;5.50;90.30
6008;DHT22;3032;49.484;11.112;2024-01-16T14:40:16;5.30;90.50
6008;DHT22;3032;49.484;11.112;2024-01-16T14:42:53;5.40;90.60
6008;DHT22;3032;49.484;11.112;2024-01-16T14:45:20;5.30;90.80
6008;DHT22;3032;49.484;11.112;2024-01-16T14:47:46;5.10;91.10
6008;DHT22;3032;49.484;11.112;2024-01-16T14:50:12;4.80;91.10
6008;DHT22;3032;49.484;11.112;2024-01-16T14:52:43;4.70;91.20
6008;DHT22;3032;49.484;11.112;2024-01-16T14:55:09;4.70;91.80
6008;DHT22;3032;49.484;11.112;2024-01-16T14:57:34;4.70;91.60
6008;DHT22;3032;49.484;11.112;2024-01-16T15:00:08;4.70;91.50
6008;DHT22;3032;49.484;11.112;2024-01-16T15:02:48;4.80;92.00
6008;DHT22;3032;49.484;11.112;2024-01-16T15:05:18;4.90;91.90
6008;DHT22;3032;49.484;11.112;2024-01-16T15:07:47;4.80;92.30
6008;DHT22;3032;49.484;11.112;2024-01-16T15:10:13;4.80;92.40
6008;DHT22;3032;49.484;11.112;2024-01-16T15:12:42;4.80;92.40
6008;DHT22;3032;49.484;11.112;2024-01-16T15:15:08;4.70;92.10
6008;DHT22;3032;49.484;11.112;2024-01-16T15:17:36;4.70;92.00
6008;DHT22;3032;49.484;11.112;2024-01-16T15:20:02;4.80;92.40
6008;DHT22;3032;49.484;11.112;2024-01-16T15:22:29;4.70;91.90
6008;DHT22;3032;49.484;11.112;2024-01-16T15:24:57;4.40;92.30
6008;DHT22;3032;49.484;11.112;2024-01-16T15:27:22;4.30;92.40
6008;DHT22;3032;49.484;11.112;2024-01-16T15:29:48;4.30;92.10
6008;DHT22;3032;49.484;11.112;2024-01-16T15:32:14;4.40;92.50
6008;DHT22;3032;49.484;11.112;2024-01-16T15:34:40;4.30;92.10
6008;DHT22;3032;49.484;11.112;2024-01-16T15:37:06;4.20;92.20
6008;DHT22;3032;49.484;11.112;2024-01-16T15:39:31;4.10;92.30
6008;DHT22;3032;49.484;11.112;2024-01-16T15:41:57;4.10;92.20
6008;DHT22;3032;49.484;11.112;2024-01-16T15:44:23;4.10;91.90
6008;DHT22;3032;49.484;11.112;2024-01-16T15:47:02;4.20;91.80
6008;DHT22;3032;49.484;11.112;2024-01-16T15:49:29;3.60;92.30
6008;DHT22;3032;49.484;11.112;2024-01-16T15:51:56;3.60;93.10
6008;DHT22;3032;49.484;11.112;2024-01-16T15:54:24;3.70;92.60
6008;DHT22;3032;49.484;11.112;2024-01-16T15:56:50;3.50;92.70
6008;DHT22;3032;49.484;11.112;2024-01-16T15:59:16;3.30;92.70
6008;DHT22;3032;49.484;11.112;2024-01-16T16:01:41;3.40;93.30
6008;DHT22;3032;49.484;11.112;2024-01-16T16:04:07;3.50;93.10
6008;DHT22;3032;49.484;11.112;2024-01-16T16:06:36;3.40;93.10
6008;DHT22;3032;49.484;11.112;2024-01-16T16:09:03;3.50;93.20
6008;DHT22;3032;49.484;11.112;2024-01-16T16:11:28;3.60;93.10
6008;DHT22;3032;49.484;11.112;2024-01-16T16:13:58;3.60;92.80